sensor_id;sensor_type;location;lat;lon;timestamp;temperature;humidity
70708;SHT30;58277;47.316;18.908;2023-08-17T00:01:07;21.15;87.85
70708;SHT30;58277;47.316;18.908;2023-08-17T00:03:30;21.15;87.97
70708;SHT30;58277;47.316;18.908;2023-08-17T00:05:53;21.09;88.37
70708;SHT30;58277;47.316;18.908;2023-08-17T00:08:15;21.05;88.52
70708;SHT30;58277;47.316;18.908;2023-08-17T00:10:38;20.99;88.73
70708;SHT30;58277;47.316;18.908;2023-08-17T00:13:01;20.96;88.89
70708;SHT30;58277;47.316;18.908;2023-08-17T00:15:26;20.94;88.96
70708;SHT30;58277;47.316;18.908;2023-08-17T00:17:48;20.94;89.13
70708;SHT30;58277;47.316;18.908;2023-08-17T00:20:11;20.91;89.20
70708;SHT30;58277;47.316;18.908;2023-08-17T00:22:34;20.91;89.36
70708;SHT30;58277;47.316;18.908;2023-08-17T00:24:57;20.95;89.39
70708;SHT30;58277;47.316;18.908;2023-08-17T00:27:20;20.95;89.47
70708;SHT30;58277;47.316;18.908;2023-08-17T00:29:42;21.01;89.34
70708;SHT30;58277;47.316;18.908;2023-08-17T00:32:05;20.98;89.36
70708;SHT30;58277;47.316;18.908;2023-08-17T00:34:30;20.94;89.33
70708;SHT30;58277;47.316;18.908;2023-08-17T00:36:54;20.88;89.36
70708;SHT30;58277;47.316;18.908;2023-08-17T00:39:17;20.84;89.46
70708;SHT30;58277;47.316;18.908;2023-08-17T00:41:40;20.85;89.46
70708;SHT30;58277;47.316;18.908;2023-08-17T00:44:03;20.87;89.40
70708;SHT30;58277;47.316;18.908;2023-08-17T00:46:26;20.92;89.66
70708;SHT30;58277;47.316;18.908;2023-08-17T00:48:51;20.92;89.77
70708;SHT30;58277;47.316;18.908;2023-08-17T00:51:14;20.88;89.79
70708;SHT30;58277;47.316;18.908;2023-08-17T00:53:38;21.01;89.17
70708;SHT30;58277;47.316;18.908;2023-08-17T00:56:01;20.80;89.82
70708;SHT30;58277;47.316;18.908;2023-08-17T00:58:25;20.75;90.03
70708;SHT30;58277;47.316;18.908;2023-08-17T01:00:48;20.84;89.59
70708;SHT30;58277;47.316;18.908;2023-08-17T01:03:11;20.74;89.77
70708;SHT30;58277;47.316;18.908;2023-08-17T01:05:34;20.68;89.99
70708;SHT30;58277;47.316;18.908;2023-08-17T01:07:57;20.78;89.81
70708;SHT30;58277;47.316;18.908;2023-08-17T01:10:21;20.73;89.90
70708;SHT30;58277;47.316;18.908;2023-08-17T01:13:11;20.83;89.83
70708;SHT30;58277;47.316;18.908;2023-08-17T01:15:43;20.87;89.65
70708;SHT30;58277;47.316;18.908;2023-08-17T01:18:19;20.88;89.41
70708;SHT30;58277;47.316;18.908;2023-08-17T01:20:46;20.84;89.55
70708;SHT30;58277;47.316;18.908;2023-08-17T01:23:09;20.87;89.45
70708;SHT30;58277;47.316;18.908;2023-08-17T01:25:32;20.94;89.41
70708;SHT30;58277;47.316;18.908;2023-08-17T01:27:59;20.92;89.41
70708;SHT30;58277;47.316;18.908;2023-08-17T01:30:22;20.91;89.67
70708;SHT30;58277;47.316;18.908;2023-08-17T01:32:50;20.91;89.70
70708;SHT30;58277;47.316;18.908;2023-08-17T01:37:58;20.85;89.94
70708;SHT30;58277;47.316;18.908;2023-08-17T01:40:22;20.85;90.06
70708;SHT30;58277;47.316;18.908;2023-08-17T01:42:46;20.68;90.52
70708;SHT30;58277;47.316;18.908;2023-08-17T01:45:09;20.60;90.77
70708;SHT30;58277;47.316;18.908;2023-08-17T01:47:32;20.68;90.64
70708;SHT30;58277;47.316;18.908;2023-08-17T01:49:55;20.80;90.15
70708;SHT30;58277;47.316;18.908;2023-08-17T01:52:22;20.80;90.05
70708;SHT30;58277;47.316;18.908;2023-08-17T01:54:47;20.84;89.94
70708;SHT30;58277;47.316;18.908;2023-08-17T01:57:10;20.65;90.83
70708;SHT30;58277;47.316;18.908;2023-08-17T01:59:33;20.71;90.89
70708;SHT30;58277;47.316;18.908;2023-08-17T02:01:55;20.64;90.92
70708;SHT30;58277;47.316;18.908;2023-08-17T02:04:20;20.63;91.21
70708;SHT30;58277;47.316;18.908;2023-08-17T02:06:43;20.61;91.22
70708;SHT30;58277;47.316;18.908;2023-08-17T02:09:06;20.70;91.21
70708;SHT30;58277;47.316;18.908;2023-08-17T02:11:28;20.84;91.28
70708;SHT30;58277;47.316;18.908;2023-08-17T02:13:51;20.77;91.10
70708;SHT30;58277;47.316;18.908;2023-08-17T02:16:14;20.65;90.38
70708;SHT30;58277;47.316;18.908;2023-08-17T02:18:36;20.74;90.21
70708;SHT30;58277;47.316;18.908;2023-08-17T02:21:00;20.88;89.77
70708;SHT30;58277;47.316;18.908;2023-08-17T02:23:22;20.87;89.38
70708;SHT30;58277;47.316;18.908;2023-08-17T02:25:46;20.94;89.31
70708;SHT30;58277;47.316;18.908;2023-08-17T02:28:09;20.91;90.06
70708;SHT30;58277;47.316;18.908;2023-08-17T02:30:32;20.98;89.99
70708;SHT30;58277;47.316;18.908;2023-08-17T02:32:55;21.03;89.75
70708;SHT30;58277;47.316;18.908;2023-08-17T02:35:18;21.11;89.63
70708;SHT30;58277;47.316;18.908;2023-08-17T02:37:41;21.15;89.51
70708;SHT30;58277;47.316;18.908;2023-08-17T02:40:04;21.15;89.49
70708;SHT30;58277;47.316;18.908;2023-08-17T02:42:26;21.18;89.42
70708;SHT30;58277;47.316;18.908;2023-08-17T02:44:49;21.11;89.39
70708;SHT30;58277;47.316;18.908;2023-08-17T02:47:12;21.06;89.58
70708;SHT30;58277;47.316;18.908;2023-08-17T02:49:35;21.08;89.56
70708;SHT30;58277;47.316;18.908;2023-08-17T02:51:58;21.13;89.50
70708;SHT30;58277;47.316;18.908;2023-08-17T02:54:20;21.18;88.94
70708;SHT30;58277;47.316;18.908;2023-08-17T02:56:44;21.16;88.86
70708;SHT30;58277;47.316;18.908;2023-08-17T02:59:07;21.13;88.84
70708;SHT30;58277;47.316;18.908;2023-08-17T03:01:30;21.13;88.81
70708;SHT30;58277;47.316;18.908;2023-08-17T03:03:53;21.09;88.62
70708;SHT30;58277;47.316;18.908;2023-08-17T03:06:16;21.12;88.38
70708;SHT30;58277;47.316;18.908;2023-08-17T03:08:39;20.98;89.38
70708;SHT30;58277;47.316;18.908;2023-08-17T03:11:02;20.74;89.85
70708;SHT30;58277;47.316;18.908;2023-08-17T03:13:25;20.81;89.92
70708;SHT30;58277;47.316;18.908;2023-08-17T03:15:48;20.85;89.89
70708;SHT30;58277;47.316;18.908;2023-08-17T03:18:11;20.88;89.78
70708;SHT30;58277;47.316;18.908;2023-08-17T03:20:34;20.81;88.74
70708;SHT30;58277;47.316;18.908;2023-08-17T03:22:57;20.83;88.71
70708;SHT30;58277;47.316;18.908;2023-08-17T03:25:20;20.87;88.49
70708;SHT30;58277;47.316;18.908;2023-08-17T03:27:43;20.90;88.06
70708;SHT30;58277;47.316;18.908;2023-08-17T03:30:06;20.84;88.16
70708;SHT30;58277;47.316;18.908;2023-08-17T03:32:29;20.74;88.63
70708;SHT30;58277;47.316;18.908;2023-08-17T03:34:52;20.63;89.34
70708;SHT30;58277;47.316;18.908;2023-08-17T03:37:15;20.58;89.91
70708;SHT30;58277;47.316;18.908;2023-08-17T03:39:37;20.67;90.10
70708;SHT30;58277;47.316;18.908;2023-08-17T03:42:00;20.74;89.74
70708;SHT30;58277;47.316;18.908;2023-08-17T03:44:22;20.77;89.65
70708;SHT30;58277;47.316;18.908;2023-08-17T03:46:45;20.73;89.63
70708;SHT30;58277;47.316;18.908;2023-08-17T03:49:08;20.64;89.54
70708;SHT30;58277;47.316;18.908;2023-08-17T03:51:32;20.68;89.49
70708;SHT30;58277;47.316;18.908;2023-08-17T03:53:54;20.68;89.46
70708;SHT30;58277;47.316;18.908;2023-08-17T03:56:17;20.50;89.16
70708;SHT30;58277;47.316;18.908;2023-08-17T03:58:40;20.57;89.25
70708;SHT30;58277;47.316;18.908;2023-08-17T04:01:03;20.50;89.57
70708;SHT30;58277;47.316;18.908;2023-08-17T04:03:28;20.48;90.04
70708;SHT30;58277;47.316;18.908;2023-08-17T04:05:51;20.50;90.24
70708;SHT30;58277;47.316;18.908;2023-08-17T04:08:14;20.54;90.33
70708;SHT30;58277;47.316;18.908;2023-08-17T04:10:36;20.47;90.60
70708;SHT30;58277;47.316;18.908;2023-08-17T04:12:59;20.40;90.89
70708;SHT30;58277;47.316;18.908;2023-08-17T04:15:22;20.57;91.06
70708;SHT30;58277;47.316;18.908;2023-08-17T04:17:45;20.63;90.92
70708;SHT30;58277;47.316;18.908;2023-08-17T04:20:08;20.56;90.91
70708;SHT30;58277;47.316;18.908;2023-08-17T04:22:31;20.65;90.73
70708;SHT30;58277;47.316;18.908;2023-08-17T04:24:55;20.64;90.40
70708;SHT30;58277;47.316;18.908;2023-08-17T04:27:19;20.56;90.07
70708;SHT30;58277;47.316;18.908;2023-08-17T04:29:42;20.47;90.22
70708;SHT30;58277;47.316;18.908;2023-08-17T04:32:05;20.46;89.55
70708;SHT30;58277;47.316;18.908;2023-08-17T04:34:27;20.64;89.40
70708;SHT30;58277;47.316;18.908;2023-08-17T04:36:50;20.83;89.00
70708;SHT30;58277;47.316;18.908;2023-08-17T04:39:13;20.94;88.69
70708;SHT30;58277;47.316;18.908;2023-08-17T04:41:38;20.96;88.25
70708;SHT30;58277;47.316;18.908;2023-08-17T04:44:04;21.15;87.94
70708;SHT30;58277;47.316;18.908;2023-08-17T04:46:26;21.29;87.68
70708;SHT30;58277;47.316;18.908;2023-08-17T04:48:49;21.38;87.42
70708;SHT30;58277;47.316;18.908;2023-08-17T04:51:13;21.46;86.92
70708;SHT30;58277;47.316;18.908;2023-08-17T04:53:39;21.46;86.46
70708;SHT30;58277;47.316;18.908;2023-08-17T04:56:02;21.51;86.52
70708;SHT30;58277;47.316;18.908;2023-08-17T04:58:25;21.30;87.07
70708;SHT30;58277;47.316;18.908;2023-08-17T05:00:48;21.28;86.95
70708;SHT30;58277;47.316;18.908;2023-08-17T05:03:11;21.19;86.99
70708;SHT30;58277;47.316;18.908;2023-08-17T05:05:53;21.22;86.88
70708;SHT30;58277;47.316;18.908;2023-08-17T05:08:16;21.40;85.26
70708;SHT30;58277;47.316;18.908;2023-08-17T05:10:39;21.59;84.92
70708;SHT30;58277;47.316;18.908;2023-08-17T05:13:01;21.88;84.03
70708;SHT30;58277;47.316;18.908;2023-08-17T05:15:24;21.94;83.53
70708;SHT30;58277;47.316;18.908;2023-08-17T05:17:47;22.14;82.80
70708;SHT30;58277;47.316;18.908;2023-08-17T05:20:10;22.25;83.28
70708;SHT30;58277;47.316;18.908;2023-08-17T05:22:35;22.19;81.77
70708;SHT30;58277;47.316;18.908;2023-08-17T05:24:58;22.19;82.79
70708;SHT30;58277;47.316;18.908;2023-08-17T05:27:21;22.32;82.83
70708;SHT30;58277;47.316;18.908;2023-08-17T05:29:45;22.41;82.73
70708;SHT30;58277;47.316;18.908;2023-08-17T05:32:07;22.48;82.66
70708;SHT30;58277;47.316;18.908;2023-08-17T05:34:31;22.69;82.75
70708;SHT30;58277;47.316;18.908;2023-08-17T05:36:54;22.70;82.79
70708;SHT30;58277;47.316;18.908;2023-08-17T05:39:16;22.83;83.32
70708;SHT30;58277;47.316;18.908;2023-08-17T05:41:39;22.97;82.67
70708;SHT30;58277;47.316;18.908;2023-08-17T05:44:02;22.96;83.73
70708;SHT30;58277;47.316;18.908;2023-08-17T05:46:25;22.97;83.34
70708;SHT30;58277;47.316;18.908;2023-08-17T05:48:48;23.06;83.62
70708;SHT30;58277;47.316;18.908;2023-08-17T05:51:10;23.18;82.98
70708;SHT30;58277;47.316;18.908;2023-08-17T05:53:33;22.90;81.10
70708;SHT30;58277;47.316;18.908;2023-08-17T05:55:56;22.99;82.85
70708;SHT30;58277;47.316;18.908;2023-08-17T05:58:18;22.90;82.19
70708;SHT30;58277;47.316;18.908;2023-08-17T06:00:41;22.82;81.03
70708;SHT30;58277;47.316;18.908;2023-08-17T06:03:04;22.79;82.23
70708;SHT30;58277;47.316;18.908;2023-08-17T06:05:28;22.76;81.61
70708;SHT30;58277;47.316;18.908;2023-08-17T06:07:51;22.87;82.30
70708;SHT30;58277;47.316;18.908;2023-08-17T06:10:13;22.90;81.69
70708;SHT30;58277;47.316;18.908;2023-08-17T06:12:36;22.89;81.98
70708;SHT30;58277;47.316;18.908;2023-08-17T06:14:59;23.01;81.49
70708;SHT30;58277;47.316;18.908;2023-08-17T06:17:42;23.39;80.89
70708;SHT30;58277;47.316;18.908;2023-08-17T06:20:26;23.70;80.23
70708;SHT30;58277;47.316;18.908;2023-08-17T06:22:48;23.92;79.01
70708;SHT30;58277;47.316;18.908;2023-08-17T06:25:12;24.06;78.03
70708;SHT30;58277;47.316;18.908;2023-08-17T06:27:35;24.18;78.83
70708;SHT30;58277;47.316;18.908;2023-08-17T06:29:58;24.14;79.41
70708;SHT30;58277;47.316;18.908;2023-08-17T06:32:21;24.03;78.41
70708;SHT30;58277;47.316;18.908;2023-08-17T06:34:43;24.07;79.53
70708;SHT30;58277;47.316;18.908;2023-08-17T06:37:06;24.10;80.35
70708;SHT30;58277;47.316;18.908;2023-08-17T06:39:29;24.37;79.44
70708;SHT30;58277;47.316;18.908;2023-08-17T06:41:52;24.41;78.60
70708;SHT30;58277;47.316;18.908;2023-08-17T06:44:15;24.38;77.76
70708;SHT30;58277;47.316;18.908;2023-08-17T06:46:37;24.55;78.68
70708;SHT30;58277;47.316;18.908;2023-08-17T06:49:00;24.48;76.89
70708;SHT30;58277;47.316;18.908;2023-08-17T06:51:23;24.37;75.51
70708;SHT30;58277;47.316;18.908;2023-08-17T06:53:45;24.40;77.61
70708;SHT30;58277;47.316;18.908;2023-08-17T06:56:09;24.40;76.51
70708;SHT30;58277;47.316;18.908;2023-08-17T06:58:32;24.57;76.13
70708;SHT30;58277;47.316;18.908;2023-08-17T07:00:54;24.33;75.57
70708;SHT30;58277;47.316;18.908;2023-08-17T07:03:18;24.27;76.55
70708;SHT30;58277;47.316;18.908;2023-08-17T07:05:41;24.25;76.19
70708;SHT30;58277;47.316;18.908;2023-08-17T07:08:04;24.12;77.04
70708;SHT30;58277;47.316;18.908;2023-08-17T07:10:26;24.13;76.54
70708;SHT30;58277;47.316;18.908;2023-08-17T07:12:49;24.24;77.72
70708;SHT30;58277;47.316;18.908;2023-08-17T07:15:12;24.27;76.83
70708;SHT30;58277;47.316;18.908;2023-08-17T07:17:35;24.16;76.04
70708;SHT30;58277;47.316;18.908;2023-08-17T07:19:59;24.17;75.14
70708;SHT30;58277;47.316;18.908;2023-08-17T07:22:38;24.23;74.69
70708;SHT30;58277;47.316;18.908;2023-08-17T07:25:01;24.45;74.73
70708;SHT30;58277;47.316;18.908;2023-08-17T07:27:24;24.03;75.25
70708;SHT30;58277;47.316;18.908;2023-08-17T07:29:47;24.17;74.32
70708;SHT30;58277;47.316;18.908;2023-08-17T07:32:10;24.17;74.61
70708;SHT30;58277;47.316;18.908;2023-08-17T07:34:33;24.17;73.95
70708;SHT30;58277;47.316;18.908;2023-08-17T07:36:56;24.38;74.06
70708;SHT30;58277;47.316;18.908;2023-08-17T07:39:18;24.44;74.55
70708;SHT30;58277;47.316;18.908;2023-08-17T07:41:41;24.40;74.78
70708;SHT30;58277;47.316;18.908;2023-08-17T07:44:04;24.50;74.26
70708;SHT30;58277;47.316;18.908;2023-08-17T07:46:27;24.69;73.45
70708;SHT30;58277;47.316;18.908;2023-08-17T07:48:50;24.78;73.56
70708;SHT30;58277;47.316;18.908;2023-08-17T07:51:13;24.92;73.64
70708;SHT30;58277;47.316;18.908;2023-08-17T07:53:35;25.09;73.02
70708;SHT30;58277;47.316;18.908;2023-08-17T07:55:58;25.16;71.56
70708;SHT30;58277;47.316;18.908;2023-08-17T07:58:21;25.34;71.46
70708;SHT30;58277;47.316;18.908;2023-08-17T08:00:43;25.17;72.35
70708;SHT30;58277;47.316;18.908;2023-08-17T08:03:06;24.93;71.22
70708;SHT30;58277;47.316;18.908;2023-08-17T08:05:29;25.12;72.01
70708;SHT30;58277;47.316;18.908;2023-08-17T08:07:52;25.44;69.77
70708;SHT30;58277;47.316;18.908;2023-08-17T08:10:15;25.61;72.04
70708;SHT30;58277;47.316;18.908;2023-08-17T08:12:38;25.85;69.14
70708;SHT30;58277;47.316;18.908;2023-08-17T08:15:01;26.11;68.50
70708;SHT30;58277;47.316;18.908;2023-08-17T08:17:25;26.12;68.39
70708;SHT30;58277;47.316;18.908;2023-08-17T08:19:49;25.86;68.44
70708;SHT30;58277;47.316;18.908;2023-08-17T08:22:13;25.75;67.88
70708;SHT30;58277;47.316;18.908;2023-08-17T08:24:36;26.20;67.82
70708;SHT30;58277;47.316;18.908;2023-08-17T08:27:01;25.60;68.43
70708;SHT30;58277;47.316;18.908;2023-08-17T08:29:23;25.50;69.59
70708;SHT30;58277;47.316;18.908;2023-08-17T08:31:46;25.88;70.59
70708;SHT30;58277;47.316;18.908;2023-08-17T08:34:09;25.58;68.68
70708;SHT30;58277;47.316;18.908;2023-08-17T08:36:32;25.71;69.17
70708;SHT30;58277;47.316;18.908;2023-08-17T08:38:54;25.89;69.09
70708;SHT30;58277;47.316;18.908;2023-08-17T08:41:17;26.06;68.32
70708;SHT30;58277;47.316;18.908;2023-08-17T08:43:41;26.06;68.42
70708;SHT30;58277;47.316;18.908;2023-08-17T08:46:07;26.15;67.55
70708;SHT30;58277;47.316;18.908;2023-08-17T08:48:31;26.03;68.66
70708;SHT30;58277;47.316;18.908;2023-08-17T08:50:55;25.98;68.91
70708;SHT30;58277;47.316;18.908;2023-08-17T08:53:28;26.20;67.58
70708;SHT30;58277;47.316;18.908;2023-08-17T08:55:59;26.37;69.26
70708;SHT30;58277;47.316;18.908;2023-08-17T08:58:22;26.43;67.42
70708;SHT30;58277;47.316;18.908;2023-08-17T09:00:46;26.73;68.75
70708;SHT30;58277;47.316;18.908;2023-08-17T09:03:10;26.53;66.69
70708;SHT30;58277;47.316;18.908;2023-08-17T09:05:34;26.54;67.65
70708;SHT30;58277;47.316;18.908;2023-08-17T09:08:02;26.46;66.62
70708;SHT30;58277;47.316;18.908;2023-08-17T09:10:25;26.08;67.95
70708;SHT30;58277;47.316;18.908;2023-08-17T09:12:50;25.86;68.46
70708;SHT30;58277;47.316;18.908;2023-08-17T09:15:13;25.78;69.60
70708;SHT30;58277;47.316;18.908;2023-08-17T09:17:38;25.86;69.12
70708;SHT30;58277;47.316;18.908;2023-08-17T09:20:01;26.26;68.61
70708;SHT30;58277;47.316;18.908;2023-08-17T09:22:37;26.73;66.00
70708;SHT30;58277;47.316;18.908;2023-08-17T09:25:04;26.90;63.35
70708;SHT30;58277;47.316;18.908;2023-08-17T09:27:27;27.05;62.50
70708;SHT30;58277;47.316;18.908;2023-08-17T09:29:50;26.91;62.09
70708;SHT30;58277;47.316;18.908;2023-08-17T09:32:14;26.94;61.67
70708;SHT30;58277;47.316;18.908;2023-08-17T09:34:37;26.86;62.56
70708;SHT30;58277;47.316;18.908;2023-08-17T09:37:03;27.25;62.26
70708;SHT30;58277;47.316;18.908;2023-08-17T09:39:26;27.22;62.22
70708;SHT30;58277;47.316;18.908;2023-08-17T09:41:49;27.31;61.77
70708;SHT30;58277;47.316;18.908;2023-08-17T09:44:12;27.24;61.38
70708;SHT30;58277;47.316;18.908;2023-08-17T09:46:35;27.26;62.88
70708;SHT30;58277;47.316;18.908;2023-08-17T09:48:58;27.49;61.11
70708;SHT30;58277;47.316;18.908;2023-08-17T09:51:20;27.39;62.36
70708;SHT30;58277;47.316;18.908;2023-08-17T09:53:51;27.32;61.76
70708;SHT30;58277;47.316;18.908;2023-08-17T09:56:24;27.43;62.68
70708;SHT30;58277;47.316;18.908;2023-08-17T09:58:46;27.41;60.66
70708;SHT30;58277;47.316;18.908;2023-08-17T10:01:13;27.36;61.32
70708;SHT30;58277;47.316;18.908;2023-08-17T10:03:39;27.06;61.69
70708;SHT30;58277;47.316;18.908;2023-08-17T10:06:05;26.84;62.20
70708;SHT30;58277;47.316;18.908;2023-08-17T10:08:43;27.02;62.03
70708;SHT30;58277;47.316;18.908;2023-08-17T10:11:06;26.90;61.36
70708;SHT30;58277;47.316;18.908;2023-08-17T10:13:41;26.98;62.45
70708;SHT30;58277;47.316;18.908;2023-08-17T10:18:38;26.91;61.20
70708;SHT30;58277;47.316;18.908;2023-08-17T10:21:16;27.15;62.54
70708;SHT30;58277;47.316;18.908;2023-08-17T10:23:40;27.32;62.38
70708;SHT30;58277;47.316;18.908;2023-08-17T10:26:05;27.31;61.90
70708;SHT30;58277;47.316;18.908;2023-08-17T10:28:34;27.09;62.60
70708;SHT30;58277;47.316;18.908;2023-08-17T10:30:57;27.02;62.05
70708;SHT30;58277;47.316;18.908;2023-08-17T10:33:20;27.09;61.99
70708;SHT30;58277;47.316;18.908;2023-08-17T10:35:43;27.31;62.38
70708;SHT30;58277;47.316;18.908;2023-08-17T10:38:10;27.66;60.99
70708;SHT30;58277;47.316;18.908;2023-08-17T10:40:37;27.70;60.47
70708;SHT30;58277;47.316;18.908;2023-08-17T10:43:02;27.73;60.68
70708;SHT30;58277;47.316;18.908;2023-08-17T10:48:25;27.54;61.31
70708;SHT30;58277;47.316;18.908;2023-08-17T10:51:04;27.18;62.50
70708;SHT30;58277;47.316;18.908;2023-08-17T10:53:34;27.12;63.03
70708;SHT30;58277;47.316;18.908;2023-08-17T10:55:59;26.74;63.37
70708;SHT30;58277;47.316;18.908;2023-08-17T10:58:22;26.77;63.46
70708;SHT30;58277;47.316;18.908;2023-08-17T11:00:45;26.67;63.60
70708;SHT30;58277;47.316;18.908;2023-08-17T11:03:18;26.70;64.34
70708;SHT30;58277;47.316;18.908;2023-08-17T11:05:49;26.84;64.98
70708;SHT30;58277;47.316;18.908;2023-08-17T11:08:32;26.81;63.60
70708;SHT30;58277;47.316;18.908;2023-08-17T11:11:12;27.29;63.84
70708;SHT30;58277;47.316;18.908;2023-08-17T11:13:39;27.32;62.31
70708;SHT30;58277;47.316;18.908;2023-08-17T11:16:06;27.45;62.82
70708;SHT30;58277;47.316;18.908;2023-08-17T11:18:29;27.39;62.33
70708;SHT30;58277;47.316;18.908;2023-08-17T11:20:53;27.67;62.31
70708;SHT30;58277;47.316;18.908;2023-08-17T11:23:19;27.70;61.94
70708;SHT30;58277;47.316;18.908;2023-08-17T11:25:48;27.87;62.44
70708;SHT30;58277;47.316;18.908;2023-08-17T11:28:11;28.05;61.82
70708;SHT30;58277;47.316;18.908;2023-08-17T11:30:36;28.22;60.88
70708;SHT30;58277;47.316;18.908;2023-08-17T11:33:01;28.08;60.37
70708;SHT30;58277;47.316;18.908;2023-08-17T11:35:24;28.04;62.28
70708;SHT30;58277;47.316;18.908;2023-08-17T11:37:48;27.91;62.09
70708;SHT30;58277;47.316;18.908;2023-08-17T11:40:12;27.93;62.08
70708;SHT30;58277;47.316;18.908;2023-08-17T11:42:36;28.07;61.88
70708;SHT30;58277;47.316;18.908;2023-08-17T11:44:59;28.19;60.90
70708;SHT30;58277;47.316;18.908;2023-08-17T11:47:25;28.14;61.37
70708;SHT30;58277;47.316;18.908;2023-08-17T11:49:59;27.74;60.93
70708;SHT30;58277;47.316;18.908;2023-08-17T11:52:44;27.66;61.86
70708;SHT30;58277;47.316;18.908;2023-08-17T11:55:08;27.32;61.75
70708;SHT30;58277;47.316;18.908;2023-08-17T11:57:34;27.41;62.96
70708;SHT30;58277;47.316;18.908;2023-08-17T11:59:58;27.42;62.38
70708;SHT30;58277;47.316;18.908;2023-08-17T12:02:25;27.73;61.69
70708;SHT30;58277;47.316;18.908;2023-08-17T12:04:49;27.91;60.64
70708;SHT30;58277;47.316;18.908;2023-08-17T12:07:12;28.04;60.32
70708;SHT30;58277;47.316;18.908;2023-08-17T12:09:35;28.10;60.88
70708;SHT30;58277;47.316;18.908;2023-08-17T12:12:01;27.90;60.49
70708;SHT30;58277;47.316;18.908;2023-08-17T12:14:26;27.91;59.80
70708;SHT30;58277;47.316;18.908;2023-08-17T12:16:52;27.93;60.65
70708;SHT30;58277;47.316;18.908;2023-08-17T12:19:14;27.97;59.86
70708;SHT30;58277;47.316;18.908;2023-08-17T12:21:37;28.25;60.03
70708;SHT30;58277;47.316;18.908;2023-08-17T12:24:03;28.35;58.96
70708;SHT30;58277;47.316;18.908;2023-08-17T12:26:27;28.18;58.39
70708;SHT30;58277;47.316;18.908;2023-08-17T12:28:51;28.08;60.38
70708;SHT30;58277;47.316;18.908;2023-08-17T12:31:21;27.71;60.56
70708;SHT30;58277;47.316;18.908;2023-08-17T12:33:44;27.46;61.13
70708;SHT30;58277;47.316;18.908;2023-08-17T12:36:06;27.33;62.29
70708;SHT30;58277;47.316;18.908;2023-08-17T12:38:29;27.25;61.34
70708;SHT30;58277;47.316;18.908;2023-08-17T12:40:53;27.18;62.35
70708;SHT30;58277;47.316;18.908;2023-08-17T12:43:15;27.29;62.62
70708;SHT30;58277;47.316;18.908;2023-08-17T12:45:38;27.42;62.97
70708;SHT30;58277;47.316;18.908;2023-08-17T12:48:01;27.49;63.00
70708;SHT30;58277;47.316;18.908;2023-08-17T12:50:24;27.59;63.53
70708;SHT30;58277;47.316;18.908;2023-08-17T12:52:47;27.64;62.56
70708;SHT30;58277;47.316;18.908;2023-08-17T12:55:09;27.41;62.40
70708;SHT30;58277;47.316;18.908;2023-08-17T12:57:32;27.42;62.54
70708;SHT30;58277;47.316;18.908;2023-08-17T12:59:55;27.45;62.53
70708;SHT30;58277;47.316;18.908;2023-08-17T13:02:17;27.69;61.87
70708;SHT30;58277;47.316;18.908;2023-08-17T13:04:41;27.74;61.01
70708;SHT30;58277;47.316;18.908;2023-08-17T13:07:04;27.87;60.20
70708;SHT30;58277;47.316;18.908;2023-08-17T13:09:26;28.01;60.95
70708;SHT30;58277;47.316;18.908;2023-08-17T13:11:49;27.97;61.31
70708;SHT30;58277;47.316;18.908;2023-08-17T13:14:15;27.86;60.36
70708;SHT30;58277;47.316;18.908;2023-08-17T13:16:42;27.71;61.09
70708;SHT30;58277;47.316;18.908;2023-08-17T13:19:04;27.74;61.79
70708;SHT30;58277;47.316;18.908;2023-08-17T13:21:27;27.87;60.72
70708;SHT30;58277;47.316;18.908;2023-08-17T13:23:50;27.93;60.60
70708;SHT30;58277;47.316;18.908;2023-08-17T13:26:12;28.01;60.20
70708;SHT30;58277;47.316;18.908;2023-08-17T13:28:35;28.02;60.45
70708;SHT30;58277;47.316;18.908;2023-08-17T13:30:58;28.11;62.40
70708;SHT30;58277;47.316;18.908;2023-08-17T13:33:40;28.07;62.46
70708;SHT30;58277;47.316;18.908;2023-08-17T13:36:06;28.05;63.25
70708;SHT30;58277;47.316;18.908;2023-08-17T13:38:29;27.94;64.04
70708;SHT30;58277;47.316;18.908;2023-08-17T13:40:51;27.73;64.22
70708;SHT30;58277;47.316;18.908;2023-08-17T13:43:14;27.77;64.11
70708;SHT30;58277;47.316;18.908;2023-08-17T13:45:40;28.01;63.88
70708;SHT30;58277;47.316;18.908;2023-08-17T13:48:03;28.18;63.29
70708;SHT30;58277;47.316;18.908;2023-08-17T13:50:26;28.35;62.55
70708;SHT30;58277;47.316;18.908;2023-08-17T13:52:49;28.51;61.84
70708;SHT30;58277;47.316;18.908;2023-08-17T13:55:14;28.63;60.87
70708;SHT30;58277;47.316;18.908;2023-08-17T13:57:40;28.70;60.93
70708;SHT30;58277;47.316;18.908;2023-08-17T14:00:04;28.77;60.99
70708;SHT30;58277;47.316;18.908;2023-08-17T14:02:27;28.80;60.69
70708;SHT30;58277;47.316;18.908;2023-08-17T14:04:53;28.70;60.44
70708;SHT30;58277;47.316;18.908;2023-08-17T14:07:15;28.72;61.09
70708;SHT30;58277;47.316;18.908;2023-08-17T14:09:38;28.66;61.01
70708;SHT30;58277;47.316;18.908;2023-08-17T14:12:01;28.56;61.24
70708;SHT30;58277;47.316;18.908;2023-08-17T14:14:24;28.52;61.59
70708;SHT30;58277;47.316;18.908;2023-08-17T14:16:47;28.46;62.66
70708;SHT30;58277;47.316;18.908;2023-08-17T14:19:09;28.38;62.32
70708;SHT30;58277;47.316;18.908;2023-08-17T14:21:32;28.21;62.50
70708;SHT30;58277;47.316;18.908;2023-08-17T14:23:58;28.14;63.54
70708;SHT30;58277;47.316;18.908;2023-08-17T14:26:21;28.04;64.22
70708;SHT30;58277;47.316;18.908;2023-08-17T14:28:43;27.93;64.20
70708;SHT30;58277;47.316;18.908;2023-08-17T14:31:06;27.86;64.92
70708;SHT30;58277;47.316;18.908;2023-08-17T14:33:29;27.79;65.43
70708;SHT30;58277;47.316;18.908;2023-08-17T14:35:52;27.74;66.31
70708;SHT30;58277;47.316;18.908;2023-08-17T14:38:18;27.64;66.72
70708;SHT30;58277;47.316;18.908;2023-08-17T14:40:45;27.54;67.05
70708;SHT30;58277;47.316;18.908;2023-08-17T14:43:08;27.46;66.92
70708;SHT30;58277;47.316;18.908;2023-08-17T14:45:31;27.35;66.96
70708;SHT30;58277;47.316;18.908;2023-08-17T14:47:54;27.33;66.88
70708;SHT30;58277;47.316;18.908;2023-08-17T14:50:20;27.33;66.10
70708;SHT30;58277;47.316;18.908;2023-08-17T14:52:46;27.32;66.63
70708;SHT30;58277;47.316;18.908;2023-08-17T14:55:08;27.31;66.49
70708;SHT30;58277;47.316;18.908;2023-08-17T14:57:31;27.36;66.41
70708;SHT30;58277;47.316;18.908;2023-08-17T14:59:54;27.36;65.94
70708;SHT30;58277;47.316;18.908;2023-08-17T15:02:17;27.42;65.40
70708;SHT30;58277;47.316;18.908;2023-08-17T15:04:43;27.42;65.22